createdAt,value
2018-03-07T00:01:08.487Z,80.70
2018-03-07T00:03:34.931Z,81.20
2018-03-07T00:06:01.405Z,80.90
2018-03-07T00:08:28.514Z,80.60
2018-03-07T00:13:27.351Z,80.50
2018-03-07T00:15:54.483Z,80.60
2018-03-07T00:18:20.869Z,80.60
2018-03-07T00:20:47.272Z,80.60
2018-03-07T00:23:13.671Z,80.60
2018-03-07T00:25:40.040Z,80.60
2018-03-07T00:28:06.402Z,80.70
2018-03-07T00:30:32.821Z,80.40
2018-03-07T00:32:59.227Z,80.10
2018-03-07T00:35:25.654Z,80.20
2018-03-07T00:37:52.810Z,80.60
2018-03-07T00:40:19.183Z,80.50
2018-03-07T00:42:45.659Z,80.50
2018-03-07T00:45:12.846Z,80.50
2018-03-07T00:47:39.256Z,80.50
2018-03-07T00:50:05.623Z,80.40
2018-03-07T00:52:32.052Z,80.70
2018-03-07T00:54:58.409Z,81.40
2018-03-07T00:57:24.846Z,82.00
2018-03-07T00:59:51.284Z,83.20
2018-03-07T01:02:17.761Z,83.30
2018-03-07T01:04:44.197Z,84.20
2018-03-07T01:07:10.628Z,84.40
2018-03-07T01:09:36.973Z,84.50
2018-03-07T01:12:03.419Z,85.10
2018-03-07T01:14:29.830Z,85.40
2018-03-07T01:16:56.223Z,85.40
2018-03-07T01:19:22.644Z,85.70
2018-03-07T01:21:49.026Z,85.80
2018-03-07T01:24:15.491Z,85.30
2018-03-07T01:26:41.988Z,85.50
2018-03-07T01:29:08.478Z,86.30
2018-03-07T01:31:35.583Z,86.10
2018-03-07T01:34:02.060Z,86.10
2018-03-07T01:36:29.212Z,85.70
2018-03-07T01:38:55.605Z,85.70
2018-03-07T01:41:22.032Z,85.40
2018-03-07T01:43:48.470Z,85.90
2018-03-07T01:46:14.902Z,85.70
2018-03-07T01:48:41.303Z,85.40
2018-03-07T01:51:07.753Z,85.40
2018-03-07T01:53:34.160Z,86.10
2018-03-07T01:56:00.516Z,85.60
2018-03-07T01:58:26.979Z,85.30
2018-03-07T02:00:53.357Z,85.80
2018-03-07T02:03:19.758Z,85.60
2018-03-07T02:05:46.118Z,86.30
2018-03-07T02:08:12.550Z,86.20
2018-03-07T02:10:38.925Z,86.20
2018-03-07T02:13:06.033Z,87.00
2018-03-07T02:15:32.422Z,86.60
2018-03-07T02:17:58.816Z,86.40
2018-03-07T02:20:25.191Z,86.70
2018-03-07T02:22:51.603Z,87.00
2018-03-07T02:25:18.715Z,87.70
2018-03-07T02:27:45.085Z,87.60
2018-03-07T02:30:11.500Z,87.60
2018-03-07T02:32:37.881Z,87.60
2018-03-07T02:35:04.264Z,87.50
2018-03-07T02:37:31.436Z,87.50
2018-03-07T02:39:57.802Z,87.50
2018-03-07T02:42:24.206Z,88.50
2018-03-07T02:44:50.582Z,88.70
2018-03-07T02:47:16.989Z,88.40
2018-03-07T02:49:43.378Z,87.40
2018-03-07T02:52:10.493Z,87.40
2018-03-07T02:54:36.932Z,87.40
2018-03-07T02:57:03.315Z,87.30
2018-03-07T02:59:29.738Z,87.30
2018-03-07T03:01:56.121Z,87.40
2018-03-07T03:04:22.534Z,87.40
2018-03-07T03:06:48.934Z,88.00
2018-03-07T03:09:15.396Z,89.70
2018-03-07T03:11:41.806Z,89.80
2018-03-07T03:14:08.245Z,89.70
2018-03-07T03:16:34.724Z,89.40
2018-03-07T03:19:01.858Z,90.10
2018-03-07T03:21:28.305Z,90.10
2018-03-07T03:23:55.458Z,90.90
2018-03-07T03:26:21.909Z,90.90
2018-03-07T03:28:49.008Z,91.10
2018-03-07T03:31:15.465Z,91.10
2018-03-07T03:33:42.601Z,91.10
2018-03-07T03:36:08.976Z,91.10
2018-03-07T03:38:35.382Z,91.50
2018-03-07T03:41:02.525Z,91.90
2018-03-07T03:43:28.970Z,91.90
2018-03-07T03:45:56.089Z,91.30
2018-03-07T03:48:22.505Z,91.30
2018-03-07T03:50:48.869Z,91.10
2018-03-07T03:53:15.976Z,90.90
2018-03-07T03:55:42.365Z,90.90
2018-03-07T03:58:08.780Z,91.00
2018-03-07T04:00:35.991Z,91.10
2018-03-07T04:03:02.387Z,91.10
2018-03-07T04:05:28.777Z,91.60
2018-03-07T04:07:55.229Z,91.60
2018-03-07T04:10:21.683Z,91.50
2018-03-07T04:12:48.081Z,91.60
2018-03-07T04:15:14.507Z,91.00
2018-03-07T04:17:40.887Z,90.50
2018-03-07T04:20:07.325Z,90.20
2018-03-07T04:22:33.746Z,89.80
2018-03-07T04:25:00.118Z,89.30
2018-03-07T04:27:26.528Z,89.20
2018-03-07T04:29:52.910Z,89.80
2018-03-07T04:32:20.022Z,89.30
2018-03-07T04:34:46.374Z,89.30
2018-03-07T04:37:13.522Z,89.20
2018-03-07T04:39:39.896Z,88.60
2018-03-07T04:42:07.051Z,89.20
2018-03-07T04:44:33.434Z,89.20
2018-03-07T04:46:59.795Z,89.20
2018-03-07T04:49:26.213Z,88.30
2018-03-07T04:51:52.564Z,89.10
2018-03-07T04:54:18.931Z,88.90
2018-03-07T04:56:45.326Z,89.00
2018-03-07T04:59:11.686Z,89.30
2018-03-07T05:01:38.145Z,90.00
2018-03-07T05:04:04.582Z,90.20
2018-03-07T05:06:31.714Z,88.60
2018-03-07T05:08:58.119Z,88.70
2018-03-07T05:11:24.551Z,88.30
2018-03-07T05:13:50.925Z,87.90
2018-03-07T05:16:17.318Z,88.10
2018-03-07T05:18:43.800Z,87.50
2018-03-07T05:21:10.118Z,87.30
2018-03-07T05:23:37.272Z,88.30
2018-03-07T05:26:04.386Z,88.10
2018-03-07T05:28:30.777Z,88.10
2018-03-07T05:30:57.189Z,88.00
2018-03-07T05:33:23.538Z,87.60
2018-03-07T05:35:49.936Z,87.50
2018-03-07T05:38:16.370Z,87.60
2018-03-07T05:40:43.489Z,87.70
2018-03-07T05:43:09.996Z,87.70
2018-03-07T05:45:36.376Z,87.20
2018-03-07T05:48:03.537Z,87.70
2018-03-07T05:50:30.655Z,87.80
2018-03-07T05:52:56.989Z,87.80
2018-03-07T05:55:23.389Z,87.80
2018-03-07T05:57:49.752Z,87.90
2018-03-07T06:00:16.185Z,86.90
2018-03-07T06:02:42.533Z,86.90
2018-03-07T06:05:09.653Z,86.10
2018-03-07T06:07:36.037Z,86.10
2018-03-07T06:10:02.516Z,85.90
2018-03-07T06:12:28.912Z,85.70
2018-03-07T06:14:55.279Z,85.70
2018-03-07T06:17:21.666Z,85.70
2018-03-07T06:19:48.034Z,85.60
2018-03-07T06:22:14.428Z,86.10
2018-03-07T06:24:40.806Z,86.10
2018-03-07T06:27:07.168Z,86.40
2018-03-07T06:29:34.356Z,85.70
2018-03-07T06:32:00.726Z,85.70
2018-03-07T06:34:27.899Z,84.40
2018-03-07T06:36:54.335Z,84.50
2018-03-07T06:39:21.979Z,83.80
2018-03-07T06:41:49.100Z,83.70
2018-03-07T06:44:15.518Z,83.70
2018-03-07T06:46:41.913Z,83.20
2018-03-07T06:49:08.302Z,83.00
2018-03-07T06:51:34.693Z,82.80
2018-03-07T06:54:01.098Z,82.70
2018-03-07T06:56:27.501Z,82.80
2018-03-07T06:58:53.914Z,83.20
2018-03-07T07:01:20.309Z,83.00
2018-03-07T07:03:46.727Z,82.60
2018-03-07T07:06:13.167Z,82.40
2018-03-07T07:08:39.572Z,82.00
2018-03-07T07:11:06.690Z,81.70
2018-03-07T07:13:33.089Z,81.70
2018-03-07T07:15:59.478Z,81.60
2018-03-07T07:18:26.624Z,80.60
2018-03-07T07:20:53.736Z,80.00
2018-03-07T07:23:20.181Z,80.00
2018-03-07T07:25:46.592Z,79.70
2018-03-07T07:28:13.028Z,79.80
2018-03-07T07:30:39.398Z,80.10
2018-03-07T07:33:06.498Z,79.70
2018-03-07T07:35:32.960Z,79.70
2018-03-07T07:37:59.344Z,79.00
2018-03-07T07:40:25.794Z,78.90
2018-03-07T07:42:52.217Z,78.60
2018-03-07T07:45:18.664Z,78.40
2018-03-07T07:47:45.037Z,78.10
2018-03-07T07:50:11.474Z,78.40
2018-03-07T07:52:38.625Z,78.30
2018-03-07T07:55:05.009Z,78.40
2018-03-07T07:57:31.361Z,77.80
2018-03-07T07:59:58.507Z,77.10
2018-03-07T08:02:25.627Z,76.60
2018-03-07T08:04:52.729Z,76.40
2018-03-07T08:07:19.150Z,76.40
2018-03-07T08:09:45.561Z,76.30
2018-03-07T08:12:11.908Z,76.30
2018-03-07T08:14:38.303Z,75.70
2018-03-07T08:17:04.655Z,75.20
2018-03-07T08:19:31.061Z,74.20
2018-03-07T08:21:57.442Z,73.40
2018-03-07T08:24:23.825Z,72.90
2018-03-07T08:26:50.160Z,72.50
2018-03-07T08:29:16.591Z,72.10
2018-03-07T08:31:42.939Z,71.40
2018-03-07T08:34:09.293Z,71.50
2018-03-07T08:36:35.718Z,70.70
2018-03-07T08:39:02.195Z,70.60
2018-03-07T08:41:28.585Z,69.60
2018-03-07T08:43:55.720Z,67.70
2018-03-07T08:46:22.847Z,67.90
2018-03-07T08:48:49.302Z,67.90
2018-03-07T08:51:15.741Z,67.70
2018-03-07T08:53:43.773Z,67.20
2018-03-07T08:56:10.205Z,67.20
2018-03-07T08:58:36.584Z,66.60
2018-03-07T09:01:03.018Z,66.40
2018-03-07T09:03:29.397Z,66.10
2018-03-07T09:05:55.818Z,65.40
2018-03-07T09:08:22.250Z,65.40
2018-03-07T09:10:48.653Z,62.80
2018-03-07T09:13:15.013Z,62.70
2018-03-07T09:15:41.457Z,62.80
2018-03-07T09:18:07.874Z,62.80
2018-03-07T09:20:34.224Z,61.80
2018-03-07T09:23:00.635Z,61.40
2018-03-07T09:25:27.021Z,60.80
2018-03-07T09:27:53.402Z,59.10
2018-03-07T09:30:19.786Z,58.80
2018-03-07T09:32:46.169Z,57.90
2018-03-07T09:35:12.590Z,56.70
2018-03-07T09:37:39.790Z,55.40
2018-03-07T09:40:06.168Z,55.30
2018-03-07T09:42:32.567Z,56.60
2018-03-07T09:44:58.924Z,55.80
2018-03-07T09:47:25.338Z,55.80
2018-03-07T09:49:51.712Z,56.00
2018-03-07T09:52:18.096Z,56.00
2018-03-07T09:54:44.474Z,55.90
2018-03-07T09:57:10.862Z,56.10
2018-03-07T09:59:37.252Z,55.90
2018-03-07T10:02:04.473Z,55.90
2018-03-07T10:04:30.842Z,55.80
2018-03-07T10:06:57.255Z,56.50
2018-03-07T10:09:24.422Z,59.20
2018-03-07T10:11:50.831Z,59.20
2018-03-07T10:14:17.982Z,59.90
2018-03-07T10:16:45.134Z,60.00
2018-03-07T10:19:11.494Z,60.00
2018-03-07T10:21:37.899Z,60.30
2018-03-07T10:24:05.011Z,58.00
2018-03-07T10:26:31.463Z,58.00
2018-03-07T10:28:57.802Z,57.10
2018-03-07T10:31:24.929Z,55.80
2018-03-07T10:33:51.356Z,55.80
2018-03-07T10:36:17.710Z,54.20
2018-03-07T10:38:44.899Z,51.60
2018-03-07T10:41:11.241Z,51.60
2018-03-07T10:43:37.713Z,50.20
2018-03-07T10:46:04.099Z,51.20
2018-03-07T10:48:30.518Z,51.20
2018-03-07T10:50:56.920Z,50.60
2018-03-07T10:53:24.090Z,50.10
2018-03-07T10:55:50.484Z,50.10
2018-03-07T10:58:16.870Z,49.00
2018-03-07T11:00:43.310Z,49.20
2018-03-07T11:03:09.710Z,47.70
2018-03-07T11:05:36.141Z,47.20
2018-03-07T11:08:02.575Z,46.40
2018-03-07T11:10:29.039Z,46.00
2018-03-07T11:12:55.425Z,45.90
2018-03-07T11:15:21.832Z,45.80
2018-03-07T11:17:48.987Z,45.20
2018-03-07T11:20:15.396Z,44.60
2018-03-07T11:22:41.805Z,43.80
2018-03-07T11:25:08.275Z,44.00
2018-03-07T11:27:34.661Z,44.60
2018-03-07T11:30:01.063Z,43.50
2018-03-07T11:32:28.204Z,42.70
2018-03-07T11:34:55.310Z,42.70
2018-03-07T11:37:21.700Z,42.70
2018-03-07T11:39:48.118Z,42.70
2018-03-07T11:42:14.594Z,44.00
2018-03-07T11:44:40.991Z,42.40
2018-03-07T11:47:07.419Z,43.20
2018-03-07T11:49:33.841Z,42.90
2018-03-07T11:52:00.994Z,42.70
2018-03-07T11:54:28.139Z,43.80
2018-03-07T11:56:55.305Z,43.20
2018-03-07T11:59:21.667Z,43.20
2018-03-07T12:01:48.075Z,43.20
2018-03-07T12:04:14.494Z,43.40
2018-03-07T12:06:40.889Z,43.30
2018-03-07T12:09:07.286Z,42.20
2018-03-07T12:11:33.691Z,42.00
2018-03-07T12:14:00.078Z,41.70
2018-03-07T12:16:26.477Z,41.90
2018-03-07T12:18:52.909Z,41.20
2018-03-07T12:21:19.308Z,41.70
2018-03-07T12:23:45.896Z,41.50
2018-03-07T12:26:12.338Z,42.00
2018-03-07T12:28:39.514Z,41.80
2018-03-07T12:31:06.628Z,42.60
2018-03-07T12:33:33.050Z,42.60
2018-03-07T12:35:59.454Z,42.50
2018-03-07T12:38:25.837Z,41.60
2018-03-07T12:40:52.522Z,41.60
2018-03-07T12:43:18.945Z,41.40
2018-03-07T12:45:45.361Z,41.90
2018-03-07T12:48:12.484Z,41.90
2018-03-07T12:50:39.677Z,41.00
2018-03-07T12:53:06.049Z,41.00
2018-03-07T12:55:32.431Z,41.50
2018-03-07T12:57:58.834Z,42.10
2018-03-07T13:00:25.972Z,41.30
2018-03-07T13:02:53.158Z,41.60
2018-03-07T13:05:19.553Z,41.50
2018-03-07T13:07:46.010Z,41.60
2018-03-07T13:10:12.400Z,41.70
2018-03-07T13:12:38.779Z,42.00
2018-03-07T13:15:05.192Z,43.20
2018-03-07T13:17:32.286Z,44.00
2018-03-07T13:19:58.705Z,44.00
2018-03-07T13:22:32.086Z,44.00
2018-03-07T13:24:58.499Z,43.70
2018-03-07T13:27:24.890Z,43.70
2018-03-07T13:29:51.990Z,45.90
2018-03-07T13:32:18.420Z,46.30
2018-03-07T13:34:44.805Z,46.00
2018-03-07T13:37:11.206Z,46.00
2018-03-07T13:39:37.576Z,46.00
2018-03-07T13:42:04.032Z,46.20
2018-03-07T13:44:31.159Z,46.00
2018-03-07T13:46:58.987Z,47.20
2018-03-07T13:49:25.386Z,46.30
2018-03-07T13:51:52.544Z,45.30
2018-03-07T13:54:18.939Z,44.20
2018-03-07T13:56:46.137Z,43.60
2018-03-07T13:59:12.523Z,43.60
2018-03-07T14:01:39.647Z,44.20
2018-03-07T14:04:06.110Z,44.20
2018-03-07T14:06:33.226Z,44.60
2018-03-07T14:08:59.658Z,44.50
2018-03-07T14:11:26.101Z,43.50
2018-03-07T14:13:52.540Z,43.10
2018-03-07T14:16:19.757Z,44.30
2018-03-07T14:18:46.162Z,44.30
2018-03-07T14:21:12.545Z,44.00
2018-03-07T14:23:39.022Z,43.30
2018-03-07T14:26:05.524Z,43.60
2018-03-07T14:28:31.905Z,43.30
2018-03-07T14:30:58.280Z,42.50
2018-03-07T14:33:25.429Z,41.90
2018-03-07T14:35:51.829Z,41.90
2018-03-07T14:38:18.222Z,41.90
2018-03-07T14:40:44.598Z,42.30
2018-03-07T14:43:11.076Z,42.00
2018-03-07T14:45:37.502Z,41.40
2018-03-07T14:48:03.995Z,41.20
2018-03-07T14:50:30.390Z,41.90
2018-03-07T14:52:56.752Z,41.80
2018-03-07T14:55:23.161Z,41.50
2018-03-07T14:57:49.520Z,41.40
2018-03-07T15:00:15.943Z,41.70
2018-03-07T15:02:43.272Z,41.80
2018-03-07T15:05:09.729Z,42.00
2018-03-07T15:07:36.857Z,42.20
2018-03-07T15:10:03.333Z,42.20
2018-03-07T15:12:29.827Z,42.10
2018-03-07T15:14:56.221Z,42.10
2018-03-07T15:17:22.632Z,42.40
2018-03-07T15:19:49.768Z,42.00
2018-03-07T15:22:16.991Z,41.80
2018-03-07T15:24:43.350Z,41.80
2018-03-07T15:27:09.739Z,41.80
2018-03-07T15:29:36.150Z,41.80
2018-03-07T15:32:02.769Z,42.00
2018-03-07T15:34:29.908Z,42.50
2018-03-07T15:36:57.077Z,42.20
2018-03-07T15:39:23.515Z,42.20
2018-03-07T15:41:49.941Z,42.40
2018-03-07T15:44:16.472Z,42.50
2018-03-07T15:46:42.849Z,42.70
2018-03-07T15:49:09.281Z,42.80
2018-03-07T15:51:35.693Z,42.90
2018-03-07T15:54:02.092Z,42.90
2018-03-07T15:56:29.270Z,43.40
2018-03-07T15:58:55.747Z,43.30
2018-03-07T16:01:22.199Z,43.60
2018-03-07T16:03:49.364Z,44.40
2018-03-07T16:06:15.744Z,44.40
2018-03-07T16:08:42.186Z,45.30
2018-03-07T16:11:08.545Z,46.00
2018-03-07T16:13:35.721Z,46.00
2018-03-07T16:16:02.115Z,46.00
2018-03-07T16:18:28.493Z,45.90
2018-03-07T16:20:54.946Z,45.90
2018-03-07T16:23:21.331Z,46.70
2018-03-07T16:25:47.781Z,47.60
2018-03-07T16:28:14.245Z,48.10
2018-03-07T16:30:40.707Z,49.60
2018-03-07T16:33:07.076Z,52.90
2018-03-07T16:35:33.484Z,55.30
2018-03-07T16:37:59.936Z,61.80
2018-03-07T16:40:26.403Z,63.10
2018-03-07T16:42:52.807Z,64.80
2018-03-07T16:45:19.223Z,65.30
2018-03-07T16:47:45.629Z,65.70
2018-03-07T16:50:12.039Z,63.00
2018-03-07T16:52:38.461Z,65.40
2018-03-07T16:55:04.888Z,66.00
2018-03-07T16:57:31.284Z,64.30
2018-03-07T16:59:57.762Z,65.80
2018-03-07T17:02:24.263Z,64.60
2018-03-07T17:04:50.656Z,65.10
2018-03-07T17:07:17.086Z,65.30
2018-03-07T17:09:43.535Z,65.60
2018-03-07T17:12:09.929Z,65.30
2018-03-07T17:14:36.412Z,65.20
2018-03-07T17:17:02.813Z,65.60
2018-03-07T17:19:29.229Z,65.90
2018-03-07T17:21:55.656Z,66.10
2018-03-07T17:24:22.039Z,64.90
2018-03-07T17:26:48.530Z,65.60
2018-03-07T17:29:15.657Z,66.40
2018-03-07T17:31:42.653Z,66.40
2018-03-07T17:34:09.252Z,67.50
2018-03-07T17:36:36.362Z,67.90
2018-03-07T17:39:02.934Z,67.80
2018-03-07T17:41:30.112Z,69.40
2018-03-07T17:43:56.595Z,69.40
2018-03-07T17:46:23.030Z,68.10
2018-03-07T17:48:49.430Z,67.70
2018-03-07T17:51:16.025Z,67.50
2018-03-07T17:53:42.470Z,67.10
2018-03-07T17:56:08.904Z,66.90
2018-03-07T17:58:35.330Z,66.70
2018-03-07T18:01:01.758Z,66.10
2018-03-07T18:03:28.152Z,66.80
2018-03-07T18:05:54.610Z,67.20
2018-03-07T18:08:21.740Z,68.60
2018-03-07T18:10:48.175Z,68.70
2018-03-07T18:13:14.618Z,68.20
2018-03-07T18:15:41.176Z,67.90
2018-03-07T18:18:07.592Z,67.50
2018-03-07T18:20:34.736Z,65.40
2018-03-07T18:23:01.974Z,62.60
2018-03-07T18:25:28.436Z,62.60
2018-03-07T18:27:54.879Z,63.00
2018-03-07T18:30:21.321Z,62.40
2018-03-07T18:32:47.754Z,62.20
2018-03-07T18:35:14.155Z,61.90
2018-03-07T18:37:40.625Z,62.80
2018-03-07T18:40:07.078Z,62.70
2018-03-07T18:42:33.525Z,62.90
2018-03-07T18:44:59.983Z,63.20
2018-03-07T18:47:26.396Z,63.20
2018-03-07T18:49:52.814Z,63.30
2018-03-07T18:52:19.328Z,64.10
2018-03-07T18:54:45.747Z,64.30
2018-03-07T18:57:12.211Z,64.50
2018-03-07T18:59:38.626Z,64.80
2018-03-07T19:02:05.071Z,65.30
2018-03-07T19:04:31.437Z,65.20
2018-03-07T19:06:58.605Z,65.80
2018-03-07T19:09:25.071Z,65.80
2018-03-07T19:11:51.520Z,66.00
2018-03-07T19:14:18.043Z,66.10
2018-03-07T19:16:44.450Z,66.40
2018-03-07T19:19:10.931Z,66.80
2018-03-07T19:21:38.101Z,67.00
2018-03-07T19:24:04.524Z,67.00
2018-03-07T19:26:30.931Z,66.50
2018-03-07T19:28:57.407Z,66.20
2018-03-07T19:31:23.905Z,66.30
2018-03-07T19:33:51.089Z,67.10
2018-03-07T19:36:17.640Z,67.10
2018-03-07T19:38:44.133Z,66.90
2018-03-07T19:41:10.621Z,67.20
2018-03-07T19:43:37.073Z,68.20
2018-03-07T19:46:03.544Z,68.40
2018-03-07T19:48:30.037Z,68.80
2018-03-07T19:50:56.554Z,68.80
2018-03-07T19:53:23.029Z,69.00
2018-03-07T19:55:50.361Z,68.80
2018-03-07T19:58:16.809Z,68.30
2018-03-07T20:00:43.982Z,68.50
2018-03-07T20:03:17.336Z,68.50
2018-03-07T20:05:43.757Z,69.20
2018-03-07T20:08:10.219Z,69.80
2018-03-07T20:10:37.392Z,70.40
2018-03-07T20:13:03.848Z,70.40
2018-03-07T20:15:30.286Z,70.40
2018-03-07T20:17:56.667Z,70.50
2018-03-07T20:20:23.117Z,70.50
2018-03-07T20:22:50.301Z,69.70
2018-03-07T20:25:17.653Z,69.70
2018-03-07T20:27:44.070Z,69.70
2018-03-07T20:30:10.567Z,70.00
2018-03-07T20:32:37.009Z,70.40
2018-03-07T20:35:03.483Z,70.20
2018-03-07T20:37:29.935Z,70.40
2018-03-07T20:39:56.373Z,70.40
2018-03-07T20:42:22.897Z,70.40
2018-03-07T20:44:49.439Z,70.40
2018-03-07T20:47:15.920Z,70.40
2018-03-07T20:49:42.358Z,71.10
2018-03-07T20:52:08.789Z,71.40
2018-03-07T20:54:35.262Z,71.40
2018-03-07T20:57:01.746Z,71.00
2018-03-07T20:59:28.156Z,71.30
2018-03-07T21:01:55.365Z,71.10
2018-03-07T21:04:21.855Z,71.10
2018-03-07T21:06:48.377Z,71.20
2018-03-07T21:09:14.889Z,70.60
2018-03-07T21:11:42.079Z,71.80
2018-03-07T21:14:08.575Z,71.80
2018-03-07T21:16:35.877Z,72.50
2018-03-07T21:19:02.366Z,72.50
2018-03-07T21:21:29.553Z,72.70
2018-03-07T21:23:56.013Z,72.80
2018-03-07T21:26:22.558Z,72.50
2018-03-07T21:28:49.051Z,72.50
2018-03-07T21:31:15.490Z,72.50
2018-03-07T21:33:41.936Z,72.30
2018-03-07T21:36:08.348Z,72.50
2018-03-07T21:38:34.729Z,72.40
2018-03-07T21:41:01.948Z,72.90
2018-03-07T21:43:28.525Z,73.00
2018-03-07T21:45:55.736Z,73.80
2018-03-07T21:48:22.995Z,73.70
2018-03-07T21:50:49.472Z,73.40
2018-03-07T21:53:16.013Z,73.40
2018-03-07T21:55:42.503Z,73.00
2018-03-07T21:58:08.955Z,73.30
2018-03-07T22:00:36.121Z,73.80
2018-03-07T22:03:02.740Z,73.80
2018-03-07T22:05:29.284Z,73.70
2018-03-07T22:07:55.728Z,74.00
2018-03-07T22:10:22.155Z,73.90
2018-03-07T22:12:48.614Z,74.10
2018-03-07T22:15:15.081Z,74.50
2018-03-07T22:17:41.569Z,74.10
2018-03-07T22:20:08.014Z,73.70
2018-03-07T22:22:34.499Z,73.70
2018-03-07T22:25:00.918Z,73.50
2018-03-07T22:27:27.338Z,73.30
2018-03-07T22:29:53.771Z,73.60
2018-03-07T22:32:20.226Z,73.30
2018-03-07T22:34:47.393Z,74.40
2018-03-07T22:37:13.826Z,74.40
2018-03-07T22:39:40.325Z,74.60
2018-03-07T22:42:06.752Z,74.60
2018-03-07T22:44:33.929Z,74.70
2018-03-07T22:47:00.319Z,74.60
2018-03-07T22:49:26.807Z,74.60
2018-03-07T22:51:53.239Z,74.50
2018-03-07T22:54:19.675Z,74.70
2018-03-07T22:56:46.139Z,74.60
2018-03-07T22:59:12.542Z,75.10
2018-03-07T23:01:39.066Z,75.30
2018-03-07T23:04:06.182Z,76.00
2018-03-07T23:06:32.634Z,75.20
2018-03-07T23:08:59.056Z,75.30
2018-03-07T23:11:26.175Z,75.90
2018-03-07T23:13:52.603Z,75.90
2018-03-07T23:16:19.146Z,76.70
2018-03-07T23:18:45.585Z,77.00
2018-03-07T23:21:12.746Z,77.20
2018-03-07T23:23:39.930Z,77.40
2018-03-07T23:26:07.096Z,77.60
2018-03-07T23:28:33.561Z,77.50
2018-03-07T23:30:59.943Z,77.50
2018-03-07T23:33:26.365Z,77.40
2018-03-07T23:35:52.790Z,77.20
2018-03-07T23:38:19.225Z,77.20
2018-03-07T23:40:46.218Z,77.60
2018-03-07T23:43:12.633Z,77.60
2018-03-07T23:45:39.026Z,77.60
2018-03-07T23:48:05.393Z,77.70
2018-03-07T23:50:31.834Z,77.70
2018-03-07T23:52:58.250Z,77.70
2018-03-07T23:55:24.670Z,78.10
2018-03-07T23:57:51.031Z,78.30
